This is the latest recevied weather packets stored in our database for station/object KP4CRN. If no packets are shown the sender has not sent any weather packets the latest 10 day(s).
| Time | Temp. | Humidity | Pressure | Rain* | Wind** | Luminosity | Snow |
|---|---|---|---|---|---|---|---|
| 1778076447 | 31.11° C | 72% | 1019.1 hPa | 0 mm | - | 664 W/m² | - |
| 1778076144 | 30.56° C | 74% | 1019.3 hPa | 0 mm | - | 657 W/m² | - |
| 1778075840 | 30° C | 76% | 1019.3 hPa | 0 mm | - | 668 W/m² | - |
| 1778075537 | 28.89° C | 79% | 1019.3 hPa | 0 mm | - | 674 W/m² | - |
| 1778075234 | 29.44° C | 79% | 1019.5 hPa | 0 mm | - | 119 W/m² | - |
| 1778074930 | 30° C | 77% | 1019.1 hPa | 0 mm | - | 119 W/m² | - |
| 1778074627 | 29.44° C | 78% | 1019.3 hPa | 0 mm | - | 652 W/m² | - |
| 1778074323 | 29.44° C | 78% | 1019.2 hPa | 0 mm | - | 204 W/m² | - |
| 1778074021 | 30° C | 76% | 1019.2 hPa | 0 mm | - | 190 W/m² | - |
| 1778073718 | 30° C | 75% | 1019.3 hPa | 0 mm | - | 431 W/m² | - |
| 1778073415 | 30° C | 76% | 1019.2 hPa | 0 mm | - | 547 W/m² | - |
| 1778073111 | 30° C | 76% | 1019.2 hPa | 0 mm | - | 525 W/m² | - |
| 1778072808 | 30° C | 77% | 1019.1 hPa | 0 mm | - | 525 W/m² | - |
| 1778072506 | 29.44° C | 77% | 1019.1 hPa | 0 mm | - | 452 W/m² | - |
| 1778072204 | 29.44° C | 77% | 1018.9 hPa | 0 mm | - | 486 W/m² | - |
| 1778071901 | 28.89° C | 78% | 1018.9 hPa | 0 mm | - | 530 W/m² | - |
| 1778071599 | 28.89° C | 80% | 1019 hPa | 0 mm | - | 355 W/m² | - |
| 1778071297 | 28.33° C | 82% | 1018.7 hPa | 0 mm | - | 554 W/m² | - |
| 1778070994 | 28.33° C | 82% | 1018.8 hPa | 0 mm | - | 269 W/m² | - |
| 1778070693 | 27.78° C | 83% | 1018.8 hPa | 0 mm | - | 524 W/m² | - |
| 1778070389 | 27.78° C | 84% | 1019 hPa | 0 mm | - | 177 W/m² | - |
| 1778070087 | 28.33° C | 83% | 1018.8 hPa | 0 mm | - | 176 W/m² | - |
| 1778069784 | 27.78° C | 84% | 1018.9 hPa | 0 mm | - | 393 W/m² | - |
| 1778069480 | 27.78° C | 84% | 1018.9 hPa | 0 mm | - | 195 W/m² | - |
| 1778069179 | 27.78° C | 84% | 1019 hPa | 0 mm | - | 300 W/m² | - |
* Rain latest hour (hover to see other rain measurements)
** Current wind speed in m/s (hover to see current wind gust speed)